createdAt,value
2023-05-08T00:01:32.571Z,101137.41
2023-05-08T00:03:59.862Z,101148.94
2023-05-08T00:06:28.159Z,101141.91
2023-05-08T00:08:56.150Z,101147.31
2023-05-08T00:11:23.191Z,101146.47
2023-05-08T00:13:50.120Z,101149.13
2023-05-08T00:16:17.210Z,101148.25
2023-05-08T00:18:44.356Z,101131.50
2023-05-08T00:21:11.464Z,101134.97
2023-05-08T00:23:38.507Z,101133.38
2023-05-08T00:26:05.825Z,101132.44
2023-05-08T00:28:33.038Z,101129.78
2023-05-08T00:31:02.435Z,101134.22
2023-05-08T00:33:29.664Z,101122.75
2023-05-08T00:36:01.794Z,101127.19
2023-05-08T00:38:31.811Z,101132.59
2023-05-08T00:40:59.112Z,101131.84
2023-05-08T00:43:28.610Z,101127.41
2023-05-08T00:45:57.301Z,101122.09
2023-05-08T00:48:25.862Z,101117.81
2023-05-08T00:50:55.093Z,101118.75
2023-05-08T00:53:23.796Z,101112.69
2023-05-08T00:55:52.208Z,101111.72
2023-05-08T00:58:21.231Z,101107.53
2023-05-08T01:00:51.547Z,101106.59
2023-05-08T01:03:18.883Z,101109.22
2023-05-08T01:05:46.525Z,101114.53
2023-05-08T01:08:13.933Z,101105.66
2023-05-08T01:10:56.155Z,101109.06
2023-05-08T01:14:04.696Z,101105.56
2023-05-08T01:17:01.003Z,101092.50
2023-05-08T01:19:43.389Z,101091.69
2023-05-08T01:22:10.331Z,101085.56
2023-05-08T01:24:50.749Z,101093.53
2023-05-08T01:27:49.267Z,101086.59
2023-05-08T01:30:38.350Z,101089.25
2023-05-08T01:33:27.724Z,101084.00
2023-05-08T01:36:03.637Z,101075.13
2023-05-08T01:38:36.026Z,101074.16
2023-05-08T01:41:18.156Z,101064.41
2023-05-08T01:43:45.102Z,101064.41
2023-05-08T01:46:19.224Z,101062.63
2023-05-08T01:49:01.937Z,101058.25
2023-05-08T01:51:36.597Z,101045.00
2023-05-08T01:54:10.243Z,101046.88
2023-05-08T01:56:40.330Z,101048.59
2023-05-08T01:59:09.051Z,101046.88
2023-05-08T02:01:36.841Z,101041.56
2023-05-08T02:04:06.889Z,101035.50
2023-05-08T02:06:35.325Z,101032.88
2023-05-08T02:09:03.373Z,101024.16
2023-05-08T02:11:33.360Z,101025.84
2023-05-08T02:14:02.588Z,101024.91
2023-05-08T02:16:30.839Z,101012.59
2023-05-08T02:19:01.620Z,101003.69
2023-05-08T02:21:30.176Z,101010.63
2023-05-08T02:23:58.281Z,101004.44
2023-05-08T02:26:26.884Z,101004.44
2023-05-08T02:28:56.602Z,101007.09
2023-05-08T02:31:24.922Z,101007.22
2023-05-08T02:33:54.537Z,101006.34
2023-05-08T02:36:23.434Z,101003.69
2023-05-08T02:38:54.848Z,101000.06
2023-05-08T02:41:23.601Z,101001.03
2023-05-08T02:43:53.061Z,100986.00
2023-05-08T02:47:16.562Z,100996.66
2023-05-08T02:49:55.271Z,100986.75
2023-05-08T02:52:46.961Z,100989.56
2023-05-08T02:55:19.831Z,100986.91
2023-05-08T02:58:00.620Z,100990.50
2023-05-08T03:00:31.965Z,100982.66
2023-05-08T03:03:09.749Z,100982.56
2023-05-08T03:05:40.364Z,100984.38
2023-05-08T03:08:11.531Z,100983.41
2023-05-08T03:10:39.530Z,100981.63
2023-05-08T03:13:10.130Z,100971.88
2023-05-08T03:15:53.034Z,100967.44
2023-05-08T03:18:25.675Z,100960.41
2023-05-08T03:20:57.064Z,100955.97
2023-05-08T03:23:28.425Z,100951.50
2023-05-08T03:25:59.297Z,100949.69
2023-05-08T03:28:27.772Z,100954.06
2023-05-08T03:30:57.939Z,100949.78
2023-05-08T03:33:27.510Z,100949.78
2023-05-08T03:35:57.086Z,100945.53
2023-05-08T03:38:24.257Z,100947.91
2023-05-08T03:40:51.514Z,100947.03
2023-05-08T03:43:20.020Z,100948.75
2023-05-08T03:45:48.254Z,100939.00
2023-05-08T03:48:16.045Z,100947.03
2023-05-08T03:50:44.126Z,100947.84
2023-05-08T03:53:11.098Z,100944.22
2023-05-08T03:55:38.753Z,100948.59
2023-05-08T03:58:15.360Z,100949.44
2023-05-08T04:01:05.749Z,100935.22
2023-05-08T04:03:32.764Z,100929.84
2023-05-08T04:06:48.500Z,100917.44
2023-05-08T04:09:38.887Z,100932.50
2023-05-08T04:12:15.460Z,100940.44
2023-05-08T04:14:51.245Z,100939.59
2023-05-08T04:18:02.755Z,100932.22
2023-05-08T04:20:30.365Z,100920.66
2023-05-08T04:22:59.290Z,100914.50
2023-05-08T04:25:27.572Z,100912.78
2023-05-08T04:27:56.569Z,100913.94
2023-05-08T04:30:24.420Z,100916.47
2023-05-08T04:32:53.137Z,100912.97
2023-05-08T04:35:20.468Z,100908.53
2023-05-08T04:37:48.036Z,100907.47
2023-05-08T04:40:15.446Z,100900.31
2023-05-08T04:42:44.148Z,100895.75
2023-05-08T04:45:11.770Z,100887.69
2023-05-08T04:47:39.434Z,100890.34
2023-05-08T04:50:07.376Z,100891.22
2023-05-08T04:52:34.478Z,100887.81
2023-05-08T04:55:01.474Z,100882.50
2023-05-08T04:57:28.705Z,100889.41
2023-05-08T04:59:56.055Z,100890.34
2023-05-08T05:02:23.421Z,100896.50
2023-05-08T05:04:50.349Z,100892.16
2023-05-08T05:07:17.848Z,100887.81
2023-05-08T05:09:44.949Z,100889.31
2023-05-08T05:12:12.555Z,100890.34
2023-05-08T05:14:39.607Z,100901.94
2023-05-08T05:17:07.209Z,100893.09
2023-05-08T05:19:34.723Z,100893.97
2023-05-08T05:22:01.791Z,100889.69
2023-05-08T05:24:28.897Z,100881.81
2023-05-08T05:26:56.260Z,100880.78
2023-05-08T05:29:24.309Z,100880.78
2023-05-08T05:31:51.300Z,100871.03
2023-05-08T05:34:18.407Z,100884.41
2023-05-08T05:36:45.712Z,100884.19
2023-05-08T05:39:13.544Z,100889.50
2023-05-08T05:41:42.680Z,100890.34
2023-05-08T05:44:09.837Z,100879.00
2023-05-08T05:46:37.207Z,100883.25
2023-05-08T05:49:04.272Z,100876.84
2023-05-08T05:51:31.442Z,100880.41
2023-05-08T05:53:58.647Z,100883.81
2023-05-08T05:56:25.787Z,100881.75
2023-05-08T05:58:53.121Z,100879.09
2023-05-08T06:01:20.151Z,100877.22
2023-05-08T06:03:47.786Z,100878.00
2023-05-08T06:06:15.349Z,100882.34
2023-05-08T06:08:42.601Z,100878.88
2023-05-08T06:11:09.671Z,100879.69
2023-05-08T06:13:36.762Z,100881.00
2023-05-08T06:16:04.089Z,100870.56
2023-05-08T06:18:31.259Z,100873.38
2023-05-08T06:20:59.006Z,100873.50
2023-05-08T06:23:27.304Z,100874.34
2023-05-08T06:25:55.053Z,100868.28
2023-05-08T06:28:24.364Z,100859.38
2023-05-08T06:30:51.513Z,100869.81
2023-05-08T06:33:19.104Z,100863.75
2023-05-08T06:35:48.070Z,100866.41
2023-05-08T06:38:16.073Z,100865.44
2023-05-08T06:40:46.928Z,100866.75
2023-05-08T06:43:14.132Z,100867.06
2023-05-08T06:45:41.348Z,100861.25
2023-05-08T06:48:08.676Z,100870.91
2023-05-08T06:50:39.711Z,100866.56
2023-05-08T06:53:07.897Z,100864.00
2023-05-08T06:55:34.978Z,100864.94
2023-05-08T06:58:02.610Z,100857.84
2023-05-08T07:00:30.868Z,100863.16
2023-05-08T07:02:58.166Z,100856.03
2023-05-08T07:05:25.449Z,100850.28
2023-05-08T07:07:56.205Z,100851.38
2023-05-08T07:10:24.010Z,100842.13
2023-05-08T07:12:52.769Z,100840.88
2023-05-08T07:15:26.098Z,100835.13
2023-05-08T07:17:54.823Z,100832.19
2023-05-08T07:20:25.061Z,100831.81
2023-05-08T07:22:52.438Z,100831.81
2023-05-08T07:25:20.929Z,100829.09
2023-05-08T07:27:49.375Z,100822.63
2023-05-08T07:30:18.550Z,100826.81
2023-05-08T07:32:46.328Z,100831.84
2023-05-08T07:35:15.179Z,100824.53
2023-05-08T07:37:43.784Z,100825.13
2023-05-08T07:40:11.609Z,100831.81
2023-05-08T07:42:41.751Z,100823.69
2023-05-08T07:45:11.782Z,100818.09
2023-05-08T07:47:49.586Z,100827.69
2023-05-08T07:50:16.948Z,100821.31
2023-05-08T07:52:44.353Z,100821.88
2023-05-08T07:55:11.810Z,100821.69
2023-05-08T07:57:43.362Z,100815.22
2023-05-08T08:00:12.925Z,100814.16
2023-05-08T08:02:40.211Z,100814.72
2023-05-08T08:05:08.204Z,100810.94
2023-05-08T08:07:36.439Z,100819.75
2023-05-08T08:10:07.805Z,100812.22
2023-05-08T08:12:34.977Z,100815.75
2023-05-08T08:15:04.890Z,100812.78
2023-05-08T08:17:32.691Z,100810.03
2023-05-08T08:20:00.408Z,100804.75
2023-05-08T08:22:28.210Z,100807.38
2023-05-08T08:24:56.081Z,100810.03
2023-05-08T08:27:24.392Z,100804.81
2023-05-08T08:29:58.589Z,100789.66
2023-05-08T08:32:33.036Z,100800.47
2023-05-08T08:35:00.323Z,100795.44
2023-05-08T08:37:28.595Z,100791.09
2023-05-08T08:39:57.497Z,100797.34
2023-05-08T08:42:24.945Z,100794.88
2023-05-08T08:44:52.789Z,100792.34
2023-05-08T08:47:28.196Z,100794.16
2023-05-08T08:49:57.089Z,100787.91
2023-05-08T08:52:32.378Z,100784.28
2023-05-08T08:55:03.746Z,100784.28
2023-05-08T08:57:35.094Z,100780.47
2023-05-08T09:00:07.435Z,100775.91
2023-05-08T09:02:37.401Z,100769.84
2023-05-08T09:05:06.446Z,100761.03
2023-05-08T09:07:35.149Z,100746.16
2023-05-08T09:10:07.791Z,100742.41
2023-05-08T09:12:35.300Z,100749.34
2023-05-08T09:15:02.489Z,100744.53
2023-05-08T09:17:29.869Z,100741.03
2023-05-08T09:19:57.704Z,100734.09
2023-05-08T09:22:26.863Z,100756.50
2023-05-08T09:25:01.718Z,100749.47
2023-05-08T09:27:30.738Z,100746.28
2023-05-08T09:30:07.341Z,100749.56
2023-05-08T09:32:40.496Z,100745.88
2023-05-08T09:35:09.752Z,100748.53
2023-05-08T09:37:41.748Z,100747.50
2023-05-08T09:40:21.639Z,100740.78
2023-05-08T09:42:51.134Z,100743.81
2023-05-08T09:45:30.510Z,100744.75
2023-05-08T09:48:01.527Z,100740.28
2023-05-08T09:50:29.015Z,100737.34
2023-05-08T09:52:57.277Z,100741.16
2023-05-08T09:55:27.054Z,100729.00
2023-05-08T09:58:00.772Z,100729.69
2023-05-08T10:00:30.648Z,100716.97
2023-05-08T10:03:04.873Z,100712.50
2023-05-08T10:05:35.234Z,100718.78
2023-05-08T10:08:23.812Z,100731.00
2023-05-08T10:10:51.439Z,100728.66
2023-05-08T10:13:22.258Z,100732.00
2023-05-08T10:15:55.333Z,100721.50
2023-05-08T10:18:30.467Z,100721.19
2023-05-08T10:21:01.741Z,100710.97
2023-05-08T10:23:29.488Z,100704.16
2023-05-08T10:26:01.446Z,100707.75
2023-05-08T10:28:44.747Z,100707.03
2023-05-08T10:31:15.543Z,100717.81
2023-05-08T10:33:47.202Z,100713.56
2023-05-08T10:36:15.640Z,100711.03
2023-05-08T10:38:44.811Z,100701.25
2023-05-08T10:41:12.799Z,100703.06
2023-05-08T10:43:43.669Z,100705.50
2023-05-08T10:46:29.221Z,100704.66
2023-05-08T10:49:26.720Z,100707.22
2023-05-08T10:51:53.812Z,100709.19
2023-05-08T10:54:43.472Z,100711.03
2023-05-08T10:57:12.613Z,100704.94
2023-05-08T10:59:45.455Z,100707.75
2023-05-08T11:02:14.092Z,100710.03
2023-05-08T11:04:41.808Z,100715.16
2023-05-08T11:07:09.521Z,100720.84
2023-05-08T11:09:43.922Z,100711.38
2023-05-08T11:12:29.813Z,100703.63
2023-05-08T11:15:02.911Z,100706.47
2023-05-08T11:17:30.695Z,100709.88
2023-05-08T11:20:00.508Z,100716.03
2023-05-08T11:22:31.550Z,100708.06
2023-05-08T11:25:17.556Z,100714.22
2023-05-08T11:27:47.596Z,100722.19
2023-05-08T11:30:33.696Z,100713.47
2023-05-08T11:33:04.427Z,100717.94
2023-05-08T11:35:41.547Z,100715.72
2023-05-08T11:38:19.808Z,100715.91
2023-05-08T11:40:49.886Z,100711.09
2023-05-08T11:43:39.792Z,100720.84
2023-05-08T11:46:13.661Z,100713.44
2023-05-08T11:48:41.107Z,100700.84
2023-05-08T11:51:08.271Z,100706.16
2023-05-08T11:53:36.987Z,100695.47
2023-05-08T11:56:05.463Z,100703.44
2023-05-08T11:58:33.570Z,100702.16
2023-05-08T12:01:01.777Z,100698.91
2023-05-08T12:03:29.310Z,100704.69
2023-05-08T12:05:58.535Z,100707.22
2023-05-08T12:08:25.884Z,100701.81
2023-05-08T12:10:57.703Z,100716.59
2023-05-08T12:13:27.272Z,100711.94
2023-05-08T12:15:58.193Z,100704.59
2023-05-08T12:18:27.239Z,100704.41
2023-05-08T12:20:58.076Z,100697.84
2023-05-08T12:23:29.908Z,100701.91
2023-05-08T12:26:01.662Z,100714.00
2023-05-08T12:28:30.312Z,100708.50
2023-05-08T12:30:58.196Z,100708.28
2023-05-08T12:33:26.466Z,100703.84
2023-05-08T12:35:54.877Z,100711.69
2023-05-08T12:38:27.803Z,100705.44
2023-05-08T12:40:57.955Z,100703.44
2023-05-08T12:43:38.545Z,100705.88
2023-05-08T12:46:05.982Z,100703.13
2023-05-08T12:48:33.117Z,100708.97
2023-05-08T12:51:05.248Z,100698.25
2023-05-08T12:53:33.551Z,100701.56
2023-05-08T12:56:05.752Z,100694.13
2023-05-08T12:58:34.771Z,100698.28
2023-05-08T13:01:13.923Z,100688.59
2023-05-08T13:03:42.163Z,100691.38
2023-05-08T13:06:22.302Z,100686.91
2023-05-08T13:08:55.552Z,100689.91
2023-05-08T13:11:34.864Z,100685.41
2023-05-08T13:14:02.248Z,100683.41
2023-05-08T13:16:30.323Z,100676.50
2023-05-08T13:19:00.669Z,100686.16
2023-05-08T13:21:28.390Z,100679.88
2023-05-08T13:23:58.570Z,100666.66
2023-05-08T13:26:27.364Z,100672.16
2023-05-08T13:28:56.638Z,100674.41
2023-05-08T13:31:25.020Z,100670.44
2023-05-08T13:33:54.006Z,100670.88
2023-05-08T13:36:22.948Z,100661.50
2023-05-08T13:38:55.684Z,100657.75
2023-05-08T13:41:23.410Z,100660.72
2023-05-08T13:43:51.411Z,100655.56
2023-05-08T13:46:19.248Z,100657.66
2023-05-08T13:48:47.794Z,100653.59
2023-05-08T13:51:15.322Z,100648.97
2023-05-08T13:53:43.780Z,100652.38
2023-05-08T13:56:13.163Z,100649.63
2023-05-08T13:58:40.868Z,100651.94
2023-05-08T14:01:21.908Z,100649.13
2023-05-08T14:03:55.458Z,100644.44
2023-05-08T14:08:52.757Z,100644.88
2023-05-08T14:11:22.796Z,100643.72
2023-05-08T14:13:51.243Z,100635.94
2023-05-08T14:16:18.745Z,100638.59
2023-05-08T14:18:45.996Z,100641.28
2023-05-08T14:21:13.352Z,100636.81
2023-05-08T14:23:40.596Z,100630.84
2023-05-08T14:26:07.897Z,100628.81
2023-05-08T14:28:37.329Z,100630.38
2023-05-08T14:31:04.688Z,100629.53
2023-05-08T14:33:32.018Z,100632.94
2023-05-08T14:35:59.536Z,100624.94
2023-05-08T14:38:27.005Z,100625.91
2023-05-08T14:40:55.149Z,100622.41
2023-05-08T14:43:23.134Z,100620.69
2023-05-08T14:45:50.546Z,100617.06
2023-05-08T14:48:18.033Z,100624.22
2023-05-08T14:50:46.247Z,100613.31
2023-05-08T14:53:13.954Z,100603.53
2023-05-08T14:55:42.677Z,100595.63
2023-05-08T14:58:10.439Z,100596.50
2023-05-08T15:00:39.847Z,100603.75
2023-05-08T15:03:08.816Z,100592.13
2023-05-08T15:05:37.273Z,100601.09
2023-05-08T15:08:05.738Z,100596.50
2023-05-08T15:10:32.948Z,100598.44
2023-05-08T15:13:01.151Z,100586.28
2023-05-08T15:15:28.609Z,100591.13
2023-05-08T15:17:55.908Z,100594.00
2023-05-08T15:20:23.624Z,100582.13
2023-05-08T15:22:50.788Z,100587.34
2023-05-08T15:25:18.241Z,100591.84
2023-05-08T15:27:45.206Z,100575.72
2023-05-08T15:30:13.177Z,100581.91
2023-05-08T15:32:40.940Z,100581.72
2023-05-08T15:35:08.830Z,100588.13
2023-05-08T15:37:38.059Z,100588.63
2023-05-08T15:40:07.715Z,100589.69
2023-05-08T15:42:35.775Z,100587.13
2023-05-08T15:45:06.876Z,100590.53
2023-05-08T15:47:34.038Z,100584.53
2023-05-08T15:50:02.406Z,100585.25
2023-05-08T15:52:29.739Z,100580.78
2023-05-08T15:54:56.936Z,100585.97
2023-05-08T15:57:23.933Z,100582.25
2023-05-08T15:59:51.243Z,100588.53
2023-05-08T16:02:18.474Z,100581.63
2023-05-08T16:04:45.589Z,100588.53
2023-05-08T16:07:12.645Z,100584.78
2023-05-08T16:09:39.874Z,100589.16
2023-05-08T16:12:07.688Z,100585.28
2023-05-08T16:14:36.653Z,100571.84
2023-05-08T16:17:04.810Z,100570.81
2023-05-08T16:19:37.097Z,100571.41
2023-05-08T16:22:05.613Z,100569.34
2023-05-08T16:24:33.736Z,100578.56
2023-05-08T16:27:01.133Z,100584.28
2023-05-08T16:29:28.709Z,100576.78
2023-05-08T16:31:56.756Z,100576.44
2023-05-08T16:34:23.823Z,100574.47
2023-05-08T16:36:51.049Z,100578.13
2023-05-08T16:39:18.437Z,100576.91
2023-05-08T16:41:45.579Z,100572.94
2023-05-08T16:44:13.334Z,100571.13
2023-05-08T16:46:40.529Z,100574.75
2023-05-08T16:49:07.684Z,100576.59
2023-05-08T16:51:34.840Z,100579.97
2023-05-08T16:54:02.077Z,100573.69
2023-05-08T16:56:29.275Z,100578.56
2023-05-08T16:58:56.328Z,100578.31
2023-05-08T17:01:23.451Z,100575.78
2023-05-08T17:03:50.804Z,100572.75
2023-05-08T17:06:18.049Z,100571.66
2023-05-08T17:08:45.203Z,100575.19
2023-05-08T17:11:12.625Z,100563.53
2023-05-08T17:13:39.783Z,100566.09
2023-05-08T17:16:08.564Z,100567.53
2023-05-08T17:18:36.532Z,100561.09
2023-05-08T17:21:03.754Z,100557.34
2023-05-08T17:23:30.865Z,100554.44
2023-05-08T17:25:59.121Z,100551.06
2023-05-08T17:28:27.045Z,100550.09
2023-05-08T17:30:54.284Z,100550.19
2023-05-08T17:33:22.522Z,100548.41
2023-05-08T17:35:49.947Z,100550.19
2023-05-08T17:38:17.656Z,100541.34
2023-05-08T17:40:45.165Z,100542.09
2023-05-08T17:43:12.810Z,100544.63
2023-05-08T17:45:41.531Z,100536.63
2023-05-08T17:48:08.916Z,100538.44
2023-05-08T17:50:36.972Z,100542.94
2023-05-08T17:53:04.655Z,100542.09
2023-05-08T17:55:32.414Z,100547.06
2023-05-08T17:58:00.352Z,100549.84
2023-05-08T18:00:27.962Z,100547.41
2023-05-08T18:02:57.462Z,100549.00
2023-05-08T18:05:25.095Z,100554.44
2023-05-08T18:07:54.411Z,100541.13
2023-05-08T18:10:21.965Z,100550.59
2023-05-08T18:12:49.325Z,100542.81
2023-05-08T18:15:16.833Z,100544.50
2023-05-08T18:17:44.194Z,100543.91
2023-05-08T18:20:15.457Z,100542.81
2023-05-08T18:22:43.110Z,100542.81
2023-05-08T18:25:10.323Z,100539.06
2023-05-08T18:27:37.432Z,100545.34
2023-05-08T18:30:05.861Z,100551.78
2023-05-08T18:32:33.412Z,100551.53
2023-05-08T18:35:01.588Z,100555.91
2023-05-08T18:37:29.502Z,100555.91
2023-05-08T18:39:56.742Z,100548.75
2023-05-08T18:42:23.925Z,100555.16
2023-05-08T18:44:51.230Z,100552.16
2023-05-08T18:47:18.413Z,100543.28
2023-05-08T18:49:45.911Z,100551.06
2023-05-08T18:52:15.879Z,100542.06
2023-05-08T18:54:43.430Z,100546.69
2023-05-08T18:57:11.373Z,100549.09
2023-05-08T18:59:39.823Z,100547.41
2023-05-08T19:02:07.285Z,100548.88
2023-05-08T19:04:36.197Z,100550.31
2023-05-08T19:07:03.742Z,100545.97
2023-05-08T19:09:31.122Z,100543.28
2023-05-08T19:11:58.447Z,100548.63
2023-05-08T19:14:26.378Z,100541.59
2023-05-08T19:16:55.052Z,100532.88
2023-05-08T19:19:24.449Z,100532.72
2023-05-08T19:21:52.204Z,100524.72
2023-05-08T19:24:24.842Z,100521.44
2023-05-08T19:26:51.872Z,100537.19
2023-05-08T19:29:19.070Z,100535.38
2023-05-08T19:31:46.623Z,100527.88
2023-05-08T19:34:14.083Z,100539.00
2023-05-08T19:36:41.474Z,100550.53
2023-05-08T19:39:08.649Z,100548.56
2023-05-08T19:41:36.597Z,100547.50
2023-05-08T19:44:03.787Z,100550.06
2023-05-08T19:46:32.004Z,100541.59
2023-05-08T19:48:59.454Z,100545.22
2023-05-08T19:51:26.638Z,100540.72
2023-05-08T19:53:53.776Z,100542.53
2023-05-08T19:56:21.526Z,100537.97
2023-05-08T19:58:48.921Z,100550.53
2023-05-08T20:01:16.378Z,100544.56
2023-05-08T20:03:43.755Z,100560.00
2023-05-08T20:06:11.291Z,100559.00
2023-05-08T20:08:38.694Z,100565.34
2023-05-08T20:11:08.357Z,100560.84
2023-05-08T20:13:35.749Z,100560.84
2023-05-08T20:16:06.182Z,100569.59
2023-05-08T20:18:35.888Z,100565.84
2023-05-08T20:21:03.639Z,100567.53
2023-05-08T20:23:31.269Z,100569.72
2023-05-08T20:26:02.156Z,100571.53
2023-05-08T20:28:33.158Z,100576.97
2023-05-08T20:31:00.369Z,100576.03
2023-05-08T20:33:27.617Z,100577.97
2023-05-08T20:35:55.216Z,100572.88
2023-05-08T20:38:22.794Z,100571.06
2023-05-08T20:40:51.001Z,100558.81
2023-05-08T20:43:19.927Z,100568.50
2023-05-08T20:45:49.714Z,100568.50
2023-05-08T20:48:18.086Z,100573.13
2023-05-08T20:50:46.576Z,100562.56
2023-05-08T20:53:15.039Z,100572.41
2023-05-08T20:55:42.270Z,100564.50
2023-05-08T20:58:11.753Z,100564.63
2023-05-08T21:00:41.147Z,100563.53
2023-05-08T21:03:08.883Z,100571.78
2023-05-08T21:05:36.698Z,100558.44
2023-05-08T21:08:06.854Z,100562.56
2023-05-08T21:10:37.685Z,100558.81
2023-05-08T21:13:06.046Z,100560.63
2023-05-08T21:15:35.903Z,100553.97
2023-05-08T21:18:03.360Z,100553.81
2023-05-08T21:20:33.362Z,100551.31
2023-05-08T21:23:03.714Z,100552.16
2023-05-08T21:25:32.363Z,100559.41
2023-05-08T21:27:59.525Z,100551.41
2023-05-08T21:30:26.629Z,100558.59
2023-05-08T21:32:54.333Z,100557.72
2023-05-08T21:35:21.854Z,100552.63
2023-05-08T21:37:53.826Z,100549.00
2023-05-08T21:40:21.910Z,100552.63
2023-05-08T21:42:50.969Z,100554.44
2023-05-08T21:45:18.239Z,100554.69
2023-05-08T21:47:45.473Z,100557.34
2023-05-08T21:50:12.826Z,100559.31
2023-05-08T21:52:40.271Z,100567.31
2023-05-08T21:55:09.282Z,100557.59
2023-05-08T21:57:36.540Z,100561.13
2023-05-08T22:00:05.712Z,100563.16
2023-05-08T22:02:33.095Z,100556.16
2023-05-08T22:05:00.308Z,100552.78
2023-05-08T22:07:27.979Z,100554.69
2023-05-08T22:09:55.192Z,100554.69
2023-05-08T22:12:22.467Z,100552.88
2023-05-08T22:14:49.641Z,100546.81
2023-05-08T22:17:16.968Z,100540.63
2023-05-08T22:19:43.974Z,100537.25
2023-05-08T22:22:11.568Z,100532.16
2023-05-08T22:24:39.016Z,100533.00
2023-05-08T22:27:06.304Z,100534.97
2023-05-08T22:29:33.577Z,100526.34
2023-05-08T22:32:00.847Z,100522.44
2023-05-08T22:34:28.101Z,100513.88
2023-05-08T22:36:55.177Z,100516.75
2023-05-08T22:39:22.208Z,100528.00
2023-05-08T22:41:49.231Z,100519.63
2023-05-08T22:44:17.050Z,100522.66
2023-05-08T22:46:44.353Z,100515.88
2023-05-08T22:49:11.617Z,100521.66
2023-05-08T22:51:39.401Z,100515.72
2023-05-08T22:54:06.998Z,100515.13
2023-05-08T22:56:34.192Z,100511.94
2023-05-08T22:59:01.136Z,100511.34
2023-05-08T23:01:28.137Z,100506.25
2023-05-08T23:03:55.270Z,100503.69
2023-05-08T23:06:22.671Z,100503.09
2023-05-08T23:08:49.846Z,100502.47
2023-05-08T23:11:16.993Z,100503.56
2023-05-08T23:13:43.938Z,100507.31
2023-05-08T23:16:11.029Z,100507.53
2023-05-08T23:18:38.014Z,100503.16
2023-05-08T23:21:08.895Z,100497.59
2023-05-08T23:23:36.371Z,100500.13
2023-05-08T23:26:05.358Z,100498.56
2023-05-08T23:28:36.254Z,100497.84
2023-05-08T23:31:04.275Z,100507.19
2023-05-08T23:33:31.552Z,100493.59
2023-05-08T23:35:59.599Z,100492.66
2023-05-08T23:38:29.898Z,100488.91
2023-05-08T23:40:56.832Z,100488.06
2023-05-08T23:43:23.791Z,100492.53
2023-05-08T23:45:51.087Z,100495.09
2023-05-08T23:48:18.179Z,100485.53
2023-05-08T23:50:45.104Z,100476.53
2023-05-08T23:53:12.205Z,100472.22
2023-05-08T23:55:39.116Z,100462.66
2023-05-08T23:58:06.506Z,100469.78
